Main page
METAR-TAF:

METAR-TAF

Airports :

Herat, Afghanistan

Herat International Airport

latitude: 34-13N, longitude: 062-13E, elevation: 964 m

Current weather observation

The report was made 57 minutes ago, at 08:55 UTC
Wind 4 kt from the Northwest
Temperature 19°C
Humidity 30%
Pressure 1016 hPa
Visibility: 9000 m

METAR: OAHR 220855Z 31004KT 9000 NSC 19/01 Q1016 RMK BLU

Time: 14:22 (09:52 UTC)

Forecast

The report was made 4 hours and 52 minutes ago, at 05:00 UTC
Forecast valid from 22 at 06 UTC to 23 at 06 UTC
Wind 3 kt from variable directions
Visibility 10 km or more
no clouds below 1500 m and no cumulonimbus
Becoming
from 22 at 07 UTC to 22 at 09 UTC
Wind 8 kt from the West/Northwest

TAF: OAHR 220500Z 2206/2306 VRB03KT CAVOK BECMG 2207/2209 30008KT

Weather observations and forecasts of more than 4000 airports (METAR and TAF reports).

The available stations are represented by yellow and red dots on the map.

Hover mouse over dot to see the name of the station.

Then click to see weather observations and forecasts.

To change the map : click on the green buttons with a black cross to zoom in, on the green button with a dash to zoom out, or on the green arrows for adjacent maps.


METAR-TAF: